Time;durP1;ratioP1;P1;durP2;ratioP2;P2;SDS_P1;SDS_P2;PMS_P1;PMS_P2;Temp;Humidity;BMP_temperature;BMP_pressure;BME280_temperature;BME280_humidity;BME280_pressure;Samples;Min_cycle;Max_cycle;Signal;HPM_P1;HPM_P2
2022/04/18 00:02:06;;;;;;;15.20;10.85;;;8.50;63.10;;;;;;5005156;28;20050;-45
2022/04/18 00:04:33;;;;;;;21.75;11.90;;;8.50;63.30;;;;;;5002731;28;20472;-45
2022/04/18 00:06:59;;;;;;;17.92;11.90;;;8.40;63.30;;;;;;5006308;28;20042;-42
2022/04/18 00:09:26;;;;;;;19.08;11.77;;;8.40;63.50;;;;;;5009803;28;20048;-43
2022/04/18 00:11:53;;;;;;;17.50;11.60;;;8.40;63.70;;;;;;5011421;28;20077;-43
2022/04/18 00:14:19;;;;;;;18.85;12.02;;;8.40;64.00;;;;;;5010862;28;20042;-43
2022/04/18 00:16:48;;;;;;;19.98;12.50;;;8.30;63.80;;;;;;5007288;28;20050;-44
2022/04/18 00:19:14;;;;;;;18.88;11.30;;;8.30;64.00;;;;;;5008094;28;20046;-43
2022/04/18 00:21:41;;;;;;;17.30;12.25;;;8.30;64.10;;;;;;5007894;28;20057;-43
2022/04/18 00:24:08;;;;;;;19.90;11.90;;;8.30;64.30;;;;;;5009873;28;20046;-44
2022/04/18 00:26:37;;;;;;;19.88;12.52;;;8.30;64.40;;;;;;5008840;28;20475;-43
2022/04/18 00:29:03;;;;;;;19.40;13.35;;;8.20;64.50;;;;;;5008041;28;20421;-43
2022/04/18 00:31:30;;;;;;;20.17;12.25;;;8.20;64.60;;;;;;5009801;28;20049;-43
2022/04/18 00:33:58;;;;;;;17.88;12.18;;;8.20;64.90;;;;;;5008289;28;20045;-44
2022/04/18 00:36:25;;;;;;;20.33;12.50;;;8.20;64.80;;;;;;5008586;28;20487;-44
2022/04/18 00:38:51;;;;;;;24.90;12.95;;;8.10;64.80;;;;;;5007407;28;20062;-43
2022/04/18 00:41:18;;;;;;;21.52;12.90;;;8.10;65.10;;;;;;5009249;28;20057;-43
2022/04/18 00:43:46;;;;;;;18.42;12.18;;;8.10;65.10;;;;;;5006758;28;20054;-44
2022/04/18 00:46:13;;;;;;;20.63;12.98;;;8.10;65.20;;;;;;5008544;28;20057;-45
2022/04/18 00:48:39;;;;;;;19.70;12.18;;;8.10;65.30;;;;;;5009921;28;20056;-43
2022/04/18 00:51:08;;;;;;;20.67;12.27;;;8.00;65.30;;;;;;5006102;28;20401;-44
2022/04/18 00:53:36;;;;;;;25.02;13.35;;;8.00;65.80;;;;;;5010118;28;20125;-43
2022/04/18 00:56:02;;;;;;;19.48;12.45;;;8.00;65.90;;;;;;5008397;28;20127;-44
2022/04/18 00:58:29;;;;;;;21.60;13.50;;;8.00;65.70;;;;;;5007290;28;20046;-44
2022/04/18 01:00:56;;;;;;;22.52;12.95;;;7.90;65.70;;;;;;5007149;28;20209;-43
2022/04/18 01:03:23;;;;;;;24.17;13.02;;;7.90;65.80;;;;;;5004601;28;20346;-43
2022/04/18 01:05:49;;;;;;;20.45;13.10;;;7.90;65.90;;;;;;5026249;28;20057;-43
2022/04/18 01:08:17;;;;;;;22.90;13.43;;;7.90;66.00;;;;;;5012293;28;20050;-43
2022/04/18 01:10:45;;;;;;;23.02;13.95;;;7.90;66.20;;;;;;5009048;28;20057;-43
2022/04/18 01:13:12;;;;;;;25.80;13.85;;;7.90;67.00;;;;;;5007591;28;20065;-43
2022/04/18 01:15:38;;;;;;;22.42;12.57;;;7.90;66.50;;;;;;5010209;28;20057;-43
2022/04/18 01:18:05;;;;;;;28.13;13.85;;;7.90;66.40;;;;;;5011601;28;20049;-43
2022/04/18 01:20:34;;;;;;;22.23;13.35;;;7.90;66.50;;;;;;5011275;28;20613;-43
2022/04/18 01:23:03;;;;;;;19.55;12.93;;;7.90;66.50;;;;;;5011041;28;20058;-43
2022/04/18 01:30:58;;;;;;;23.48;13.40;;;7.80;66.70;;;;;;5007957;28;20054;-43
2022/04/18 01:33:26;;;;;;;24.08;13.55;;;7.80;67.20;;;;;;5005641;28;20045;-44
2022/04/18 01:35:53;;;;;;;22.38;13.75;;;7.80;67.60;;;;;;5006076;28;20045;-44
2022/04/18 01:38:21;;;;;;;18.20;12.55;;;7.70;67.60;;;;;;5009409;28;20478;-44
2022/04/18 01:40:47;;;;;;;21.83;13.45;;;7.70;67.90;;;;;;5005990;28;20045;-43
2022/04/18 01:43:14;;;;;;;22.48;13.90;;;7.70;67.80;;;;;;5007788;28;20062;-44
2022/04/18 01:45:41;;;;;;;22.77;14.88;;;7.70;68.00;;;;;;5008186;28;20145;-44
2022/04/18 01:48:08;;;;;;;21.48;13.73;;;7.70;68.20;;;;;;5006592;28;20104;-45
2022/04/18 01:50:35;;;;;;;23.55;13.60;;;7.70;68.30;;;;;;5008915;28;20413;-45
2022/04/18 01:53:03;;;;;;;21.35;13.18;;;7.70;68.70;;;;;;5007980;28;20038;-45
2022/04/18 01:55:31;;;;;;;21.73;13.77;;;7.60;68.90;;;;;;5005868;28;20074;-45
2022/04/18 01:57:58;;;;;;;21.02;14.23;;;7.60;69.10;;;;;;5008322;28;20398;-44
2022/04/18 02:00:25;;;;;;;23.95;13.85;;;7.60;69.40;;;;;;5007035;28;20056;-45
2022/04/18 02:02:52;;;;;;;22.75;14.00;;;7.50;69.60;;;;;;5007614;28;20058;-45
2022/04/18 02:05:19;;;;;;;22.08;13.77;;;7.60;70.00;;;;;;5003346;28;20794;-44
2022/04/18 02:07:45;;;;;;;23.50;14.25;;;7.50;70.00;;;;;;5006024;28;20060;-45
2022/04/18 02:10:13;;;;;;;20.88;14.38;;;7.50;70.30;;;;;;5006678;28;20052;-45
2022/04/18 02:12:41;;;;;;;25.10;14.18;;;7.50;70.60;;;;;;5008031;28;20050;-44
2022/04/18 02:15:08;;;;;;;21.10;14.35;;;7.50;70.80;;;;;;5003273;28;20052;-44
2022/04/18 02:17:35;;;;;;;22.02;14.10;;;7.40;71.00;;;;;;5004490;28;20068;-43
2022/04/18 02:20:02;;;;;;;23.38;14.75;;;7.40;71.20;;;;;;5009615;28;20038;-44
2022/04/18 02:22:30;;;;;;;26.80;14.40;;;7.40;71.40;;;;;;5012562;28;20071;-44
2022/04/18 02:24:57;;;;;;;21.38;13.90;;;7.40;71.60;;;;;;5008166;28;20053;-44
2022/04/18 02:27:23;;;;;;;23.13;14.02;;;7.40;72.20;;;;;;5009178;28;20064;-44
2022/04/18 02:29:51;;;;;;;23.23;13.68;;;7.30;72.00;;;;;;5006612;28;20056;-44
2022/04/18 02:35:02;;;;;;;22.15;13.57;;;7.30;72.40;;;;;;5005972;28;20487;-44
2022/04/18 02:37:29;;;;;;;24.65;14.32;;;7.30;72.60;;;;;;5007030;28;20475;-44
2022/04/18 02:39:59;;;;;;;21.27;14.40;;;7.30;73.00;;;;;;5006445;28;20540;-43
2022/04/18 02:42:25;;;;;;;22.00;14.82;;;7.20;73.20;;;;;;5004501;28;20046;-44
2022/04/18 02:44:53;;;;;;;23.88;15.25;;;7.20;73.30;;;;;;5005902;28;20054;-44
2022/04/18 02:47:20;;;;;;;24.17;15.18;;;7.20;73.50;;;;;;5006444;28;20056;-44
2022/04/18 02:49:47;;;;;;;23.30;14.48;;;7.10;73.70;;;;;;5006722;28;20561;-44
2022/04/18 02:52:13;;;;;;;24.52;14.60;;;7.10;74.00;;;;;;5007354;28;20413;-43
2022/04/18 02:54:40;;;;;;;23.13;15.07;;;7.10;74.10;;;;;;5007155;28;20046;-44
2022/04/18 02:57:07;;;;;;;23.85;14.57;;;7.10;74.10;;;;;;5006541;28;20100;-44
2022/04/18 02:59:34;;;;;;;24.15;14.65;;;7.10;74.20;;;;;;5004842;28;20082;-44
2022/04/18 03:02:02;;;;;;;25.92;15.77;;;7.10;74.40;;;;;;5007264;28;20048;-44
2022/04/18 03:04:29;;;;;;;24.13;14.98;;;7.00;74.70;;;;;;5005665;28;20490;-45
2022/04/18 03:06:56;;;;;;;23.02;14.48;;;7.00;74.60;;;;;;5011033;28;20092;-43
2022/04/18 03:09:22;;;;;;;25.65;15.35;;;7.00;74.60;;;;;;5009648;28;20041;-44
2022/04/18 03:11:49;;;;;;;22.63;14.60;;;6.90;74.90;;;;;;5007104;28;20574;-44
2022/04/18 03:14:16;;;;;;;25.17;14.20;;;6.90;75.20;;;;;;5006741;28;20046;-43
2022/04/18 03:16:42;;;;;;;21.77;14.20;;;6.90;75.30;;;;;;5005914;28;20057;-44
2022/04/18 03:19:10;;;;;;;23.73;13.82;;;6.90;75.20;;;;;;5006985;28;20514;-43
2022/04/18 03:21:37;;;;;;;28.35;15.45;;;6.90;75.30;;;;;;5010481;28;20052;-44
2022/04/18 03:24:05;;;;;;;20.98;14.57;;;6.80;76.10;;;;;;5006498;28;20054;-44
2022/04/18 03:26:31;;;;;;;23.48;15.02;;;6.80;75.50;;;;;;5022973;28;20058;-44
2022/04/18 03:28:58;;;;;;;23.05;15.38;;;6.80;75.70;;;;;;5004994;28;20053;-44
2022/04/18 03:31:25;;;;;;;25.05;15.13;;;6.70;75.90;;;;;;5005839;28;20056;-44
2022/04/18 03:33:51;;;;;;;24.10;15.05;;;6.70;76.10;;;;;;5005904;28;20097;-42
2022/04/18 03:41:48;;;;;;;23.25;15.45;;;6.60;76.50;;;;;;5006268;28;20089;-43
2022/04/18 03:44:14;;;;;;;25.38;15.15;;;6.60;76.70;;;;;;5009376;28;20062;-43
2022/04/18 03:46:41;;;;;;;25.33;14.13;;;6.60;77.10;;;;;;5008611;28;20061;-42
2022/04/18 03:49:08;;;;;;;22.30;13.93;;;6.60;77.20;;;;;;5008890;28;20136;-43
2022/04/18 03:51:36;;;;;;;23.38;15.10;;;6.60;77.10;;;;;;5013362;28;20065;-43
2022/04/18 03:54:03;;;;;;;21.42;13.80;;;6.60;77.10;;;;;;5010481;28;20043;-43
2022/04/18 03:56:29;;;;;;;23.45;14.70;;;6.60;77.50;;;;;;5008573;28;20129;-42
2022/04/18 03:58:56;;;;;;;23.08;14.00;;;6.60;77.70;;;;;;5008973;28;20050;-44
2022/04/18 04:01:23;;;;;;;23.52;14.48;;;6.50;77.50;;;;;;5008529;28;20483;-43
2022/04/18 04:03:50;;;;;;;22.60;14.57;;;6.50;77.80;;;;;;5006150;28;20058;-43
2022/04/18 04:06:16;;;;;;;22.48;14.57;;;6.50;77.70;;;;;;5008230;28;20077;-43
2022/04/18 04:08:44;;;;;;;22.52;13.77;;;6.40;77.90;;;;;;5009551;28;20042;-43
2022/04/18 04:11:11;;;;;;;22.50;14.38;;;6.40;79.00;;;;;;5009366;28;20485;-43
2022/04/18 04:13:38;;;;;;;23.40;14.77;;;6.40;78.70;;;;;;5006590;28;20487;-43
2022/04/18 04:16:05;;;;;;;25.45;14.38;;;6.50;79.10;;;;;;5007216;28;20133;-43
2022/04/18 04:18:31;;;;;;;26.40;14.88;;;6.30;78.80;;;;;;5008852;28;20059;-44
2022/04/18 04:20:58;;;;;;;25.67;15.32;;;6.30;79.30;;;;;;5007854;28;20056;-44
2022/04/18 04:23:25;;;;;;;23.88;14.98;;;6.30;79.30;;;;;;5007588;28;20384;-44
2022/04/18 04:25:53;;;;;;;21.67;14.02;;;6.30;79.90;;;;;;5007952;28;20054;-44
2022/04/18 04:28:20;;;;;;;27.23;14.57;;;6.30;80.10;;;;;;5007168;28;20478;-43
2022/04/18 04:30:46;;;;;;;23.45;14.25;;;6.30;79.90;;;;;;5008113;28;20054;-43
2022/04/18 04:33:15;;;;;;;22.30;13.88;;;6.30;80.00;;;;;;5009262;28;20050;-43
2022/04/18 04:35:42;;;;;;;20.35;12.85;;;6.20;80.30;;;;;;5009392;28;20111;-44
2022/04/18 04:38:08;;;;;;;23.80;14.82;;;6.30;80.40;;;;;;5008165;28;20477;-45
2022/04/18 04:40:36;;;;;;;22.40;13.63;;;6.20;80.60;;;;;;5008859;28;20102;-44
2022/04/18 04:43:04;;;;;;;20.77;14.10;;;6.30;81.10;;;;;;5008136;28;20085;-44
2022/04/18 04:45:31;;;;;;;22.10;14.88;;;6.20;81.20;;;;;;5008697;28;20053;-44
2022/04/18 04:47:58;;;;;;;21.58;13.82;;;6.20;81.70;;;;;;5008898;28;20045;-44
2022/04/18 04:50:24;;;;;;;23.67;15.00;;;6.20;81.40;;;;;;5009775;28;20759;-44
2022/04/18 04:52:51;;;;;;;22.75;14.32;;;6.20;81.70;;;;;;5008690;28;20120;-44
2022/04/18 04:55:18;;;;;;;21.50;13.20;;;6.20;81.80;;;;;;5008051;28;20061;-44
2022/04/18 04:57:45;;;;;;;25.80;13.93;;;6.20;81.70;;;;;;5005944;28;20060;-45
2022/04/18 05:00:14;;;;;;;24.38;14.02;;;6.20;81.80;;;;;;5005113;28;20057;-43
2022/04/18 05:02:42;;;;;;;27.27;14.18;;;6.20;82.00;;;;;;5008812;28;20068;-43
2022/04/18 05:05:09;;;;;;;22.85;13.40;;;6.20;82.10;;;;;;5009572;28;20046;-44
2022/04/18 05:07:36;;;;;;;19.80;14.25;;;6.20;82.60;;;;;;5007875;28;20490;-44
2022/04/18 05:10:03;;;;;;;24.67;14.40;;;6.20;82.50;;;;;;5007007;28;20133;-44
2022/04/18 05:12:31;;;;;;;23.25;14.48;;;6.20;82.80;;;;;;5009588;28;20052;-44
2022/04/18 05:15:02;;;;;;;23.83;14.80;;;6.20;82.50;;;;;;5011720;28;20089;-43
2022/04/18 05:17:30;;;;;;;24.45;15.50;;;6.20;82.50;;;;;;5006243;28;20046;-43
2022/04/18 05:19:57;;;;;;;23.55;14.02;;;6.20;82.40;;;;;;5007964;28;20046;-43
2022/04/18 05:22:23;;;;;;;24.00;14.35;;;6.30;82.60;;;;;;5009260;28;20046;-43
2022/04/18 05:24:51;;;;;;;24.30;14.48;;;6.30;82.80;;;;;;5008632;28;20455;-44
2022/04/18 05:27:18;;;;;;;22.77;14.32;;;6.30;82.90;;;;;;5007668;28;20486;-44
2022/04/18 05:29:45;;;;;;;23.67;14.77;;;6.30;83.20;;;;;;5008911;28;20141;-44
2022/04/18 05:32:11;;;;;;;20.77;13.57;;;6.40;83.20;;;;;;5009484;28;20068;-44
2022/04/18 05:34:39;;;;;;;23.88;14.50;;;6.40;83.40;;;;;;5005737;28;20078;-44
2022/04/18 05:37:07;;;;;;;24.92;14.48;;;6.50;83.60;;;;;;5008156;28;20494;-44
2022/04/18 05:39:33;;;;;;;24.25;14.50;;;6.50;83.20;;;;;;5008561;28;20050;-42
2022/04/18 05:42:00;;;;;;;20.85;14.60;;;6.50;83.40;;;;;;5007503;28;20235;-44
2022/04/18 05:44:27;;;;;;;20.90;14.63;;;6.60;83.30;;;;;;5006926;28;20169;-44
2022/04/18 05:46:54;;;;;;;22.80;14.18;;;6.60;83.20;;;;;;5007616;28;20054;-44
2022/04/18 05:49:20;;;;;;;25.05;14.60;;;6.70;83.20;;;;;;5006158;28;20053;-44
2022/04/18 05:51:54;;;;;;;23.58;15.00;;;6.80;83.40;;;;;;5007227;28;20041;-44
2022/04/18 05:54:20;;;;;;;23.80;14.60;;;6.80;84.00;;;;;;5003647;28;20046;-42
2022/04/18 05:56:47;;;;;;;22.10;13.38;;;6.90;83.00;;;;;;5005670;28;20042;-45
2022/04/18 05:59:14;;;;;;;21.20;14.43;;;7.00;82.70;;;;;;5004957;28;20184;-45
2022/04/18 06:01:40;;;;;;;24.77;14.20;;;7.10;82.50;;;;;;5007968;28;20042;-45
2022/04/18 06:04:08;;;;;;;22.45;14.10;;;7.20;82.30;;;;;;5006435;28;20054;-45
2022/04/18 06:06:34;;;;;;;24.88;14.52;;;7.30;82.00;;;;;;5006520;28;20050;-44
2022/04/18 06:09:02;;;;;;;22.08;14.85;;;7.40;81.70;;;;;;5006420;28;20046;-45
2022/04/18 06:11:29;;;;;;;21.30;14.90;;;7.60;81.50;;;;;;5005960;28;20402;-45
2022/04/18 06:13:56;;;;;;;20.65;13.77;;;7.70;81.10;;;;;;5008497;28;20054;-45
2022/04/18 06:16:22;;;;;;;21.70;14.00;;;7.80;80.70;;;;;;5007386;28;20052;-43
2022/04/18 06:18:49;;;;;;;23.20;14.00;;;7.90;80.50;;;;;;5007530;28;20049;-43
2022/04/18 06:21:16;;;;;;;21.05;13.02;;;8.00;80.10;;;;;;5005562;28;20482;-43
2022/04/18 06:23:43;;;;;;;25.88;14.05;;;8.10;79.90;;;;;;5007853;28;20085;-44
2022/04/18 06:26:11;;;;;;;21.10;13.07;;;8.20;79.20;;;;;;5005474;28;20093;-44
2022/04/18 06:28:38;;;;;;;24.85;15.18;;;8.30;79.10;;;;;;5004499;28;20133;-44
2022/04/18 06:31:04;;;;;;;24.15;13.00;;;8.50;79.00;;;;;;5006885;28;20050;-44
2022/04/18 06:33:34;;;;;;;23.13;14.10;;;8.60;78.00;;;;;;5006814;28;20462;-44
2022/04/18 06:36:01;;;;;;;22.25;13.75;;;8.70;77.70;;;;;;5003165;28;20038;-44
2022/04/18 06:38:28;;;;;;;21.63;13.38;;;8.80;77.40;;;;;;5006470;28;21345;-44
2022/04/18 06:40:55;;;;;;;25.23;13.32;;;9.00;76.80;;;;;;5005603;28;20045;-43
2022/04/18 06:43:23;;;;;;;23.90;13.43;;;9.10;76.40;;;;;;5004599;28;20046;-44
2022/04/18 06:45:50;;;;;;;20.27;13.63;;;9.20;75.70;;;;;;5006722;28;20050;-44
2022/04/18 06:48:16;;;;;;;21.15;13.52;;;9.30;75.40;;;;;;5006378;28;20052;-44
2022/04/18 06:50:45;;;;;;;25.40;13.73;;;9.50;74.70;;;;;;5003980;28;20050;-45
2022/04/18 06:53:12;;;;;;;23.58;13.35;;;9.60;74.50;;;;;;5005041;28;20113;-44
2022/04/18 06:58:24;;;;;;;20.67;12.60;;;9.80;73.20;;;;;;5007659;28;20057;-44
2022/04/18 07:00:51;;;;;;;20.13;12.35;;;9.90;72.60;;;;;;5003794;28;20050;-44
2022/04/18 07:03:18;;;;;;;20.52;12.35;;;10.10;72.40;;;;;;5005987;28;20060;-44
2022/04/18 07:05:44;;;;;;;17.48;11.77;;;10.20;71.70;;;;;;5007132;28;20052;-44
2022/04/18 07:08:11;;;;;;;19.50;12.65;;;10.40;71.30;;;;;;5005532;28;20058;-44
2022/04/18 07:10:38;;;;;;;19.77;11.85;;;10.50;71.10;;;;;;5004649;28;20054;-44
2022/04/18 07:13:05;;;;;;;21.42;12.73;;;10.60;70.90;;;;;;5005973;28;20048;-44
2022/04/18 07:15:33;;;;;;;19.15;12.77;;;10.80;70.40;;;;;;5006713;28;20053;-44
2022/04/18 07:18:01;;;;;;;18.42;11.65;;;10.90;70.10;;;;;;5009630;28;20143;-44
2022/04/18 07:20:31;;;;;;;19.83;12.32;;;11.00;69.50;;;;;;5008162;28;20065;-44
2022/04/18 07:22:58;;;;;;;21.05;11.88;;;11.20;69.00;;;;;;5010980;28;20421;-44
2022/04/18 07:25:25;;;;;;;17.55;11.90;;;11.30;69.10;;;;;;5007138;28;20180;-44
2022/04/18 07:27:51;;;;;;;21.65;11.77;;;11.40;68.00;;;;;;5012269;28;20186;-44
2022/04/18 07:30:18;;;;;;;18.67;12.00;;;11.50;67.60;;;;;;5013893;28;20053;-45
2022/04/18 07:32:46;;;;;;;16.95;10.88;;;11.60;67.60;;;;;;5008882;28;20064;-43
2022/04/18 07:35:13;;;;;;;17.95;11.52;;;11.70;67.40;;;;;;5009831;28;20367;-44
2022/04/18 07:38:48;;;;;;;15.98;10.45;;;11.90;67.20;;;;;;5018554;28;20147;-44
2022/04/18 07:40:28;;;;;;;19.05;10.90;;;12.10;67.00;;;;;;5009287;28;20490;-44
2022/04/18 07:42:55;;;;;;;14.90;10.13;;;12.30;66.40;;;;;;5010947;28;20049;-43
2022/04/18 07:45:22;;;;;;;15.27;10.02;;;12.50;65.20;;;;;;5013087;28;20124;-43
2022/04/18 07:47:51;;;;;;;18.20;9.45;;;12.70;63.60;;;;;;5012583;28;20136;-46
2022/04/18 07:50:18;;;;;;;15.20;9.90;;;12.80;62.30;;;;;;5010680;28;20055;-42
2022/04/18 07:52:44;;;;;;;16.20;8.80;;;12.90;61.10;;;;;;5008502;28;20133;-43
2022/04/18 07:55:11;;;;;;;15.63;9.45;;;12.90;60.40;;;;;;5010523;28;20050;-43
2022/04/18 07:57:38;;;;;;;14.13;9.30;;;13.10;59.60;;;;;;5013823;28;20486;-43
2022/04/18 08:00:06;;;;;;;16.70;10.32;;;13.20;59.40;;;;;;5014971;28;20053;-43
2022/04/18 08:02:34;;;;;;;17.27;9.80;;;13.40;59.40;;;;;;5009886;28;20056;-45
2022/04/18 08:05:02;;;;;;;14.15;9.70;;;13.50;58.90;;;;;;5017112;28;20114;-45
2022/04/18 08:07:30;;;;;;;19.13;9.20;;;13.70;58.50;;;;;;4997299;28;20077;-45
2022/04/18 08:09:57;;;;;;;16.65;9.43;;;13.80;58.70;;;;;;5013665;28;20053;-44
2022/04/18 08:12:24;;;;;;;13.73;8.73;;;14.00;58.40;;;;;;5014943;28;20057;-45
2022/04/18 08:14:50;;;;;;;13.85;8.88;;;14.20;58.20;;;;;;5015057;28;20132;-45
2022/04/18 08:17:17;;;;;;;15.52;10.80;;;14.30;57.50;;;;;;5015892;28;20508;-45
2022/04/18 08:19:44;;;;;;;14.80;9.40;;;14.50;57.10;;;;;;5009014;28;20054;-45
2022/04/18 08:22:12;;;;;;;13.68;8.85;;;14.50;56.80;;;;;;5016248;28;20394;-45
2022/04/18 08:24:39;;;;;;;16.40;10.07;;;14.70;56.80;;;;;;5010837;28;20082;-45
2022/04/18 08:27:06;;;;;;;16.15;9.05;;;14.70;56.10;;;;;;5017914;28;20050;-44
2022/04/18 08:29:33;;;;;;;15.93;9.43;;;14.70;55.80;;;;;;5011838;28;21629;-44
2022/04/18 08:31:59;;;;;;;13.05;8.57;;;14.80;55.80;;;;;;5016740;28;20124;-44
2022/04/18 08:34:26;;;;;;;14.40;9.48;;;14.90;56.00;;;;;;5013255;28;20046;-44
2022/04/18 08:36:53;;;;;;;16.92;9.23;;;15.00;56.50;;;;;;5014386;28;20048;-43
2022/04/18 08:39:21;;;;;;;14.23;8.95;;;15.10;55.20;;;;;;5015024;28;20042;-44
2022/04/18 08:41:49;;;;;;;15.55;8.70;;;15.20;55.10;;;;;;5011883;28;20054;-44
2022/04/18 08:44:16;;;;;;;12.80;8.77;;;15.40;55.00;;;;;;5014168;28;20128;-44
2022/04/18 08:46:43;;;;;;;13.43;8.30;;;15.60;53.80;;;;;;5014432;28;20537;-44
2022/04/18 08:54:56;;;;;;;12.75;9.00;;;15.90;53.40;;;;;;5016858;28;20049;-44
2022/04/18 08:57:22;;;;;;;17.98;8.73;;;16.00;51.90;;;;;;5008658;28;20070;-44
2022/04/18 08:59:49;;;;;;;14.40;9.10;;;16.10;52.20;;;;;;5008052;28;20073;-44
2022/04/18 09:02:16;;;;;;;13.38;8.55;;;16.30;52.50;;;;;;5006715;28;20133;-44
2022/04/18 09:04:46;;;;;;;15.30;8.98;;;16.50;52.50;;;;;;5009883;28;20057;-45
2022/04/18 09:07:13;;;;;;;12.52;7.93;;;16.70;52.30;;;;;;5008346;28;20073;-44
2022/04/18 09:09:40;;;;;;;15.02;8.95;;;16.90;51.60;;;;;;5007516;28;20053;-44
2022/04/18 09:12:17;;;;;;;13.88;9.05;;;17.00;51.60;;;;;;5010044;28;20057;-44
2022/04/18 09:14:45;;;;;;;11.77;8.38;;;17.20;51.10;;;;;;5012232;28;20058;-44
2022/04/18 09:17:12;;;;;;;10.75;7.85;;;17.30;51.10;;;;;;5014704;28;20053;-43
2022/04/18 09:19:39;;;;;;;12.30;8.70;;;17.30;50.70;;;;;;5006168;28;20080;-44
2022/04/18 09:22:07;;;;;;;14.27;8.63;;;17.40;49.60;;;;;;5012512;28;20046;-44
2022/04/18 09:24:34;;;;;;;14.23;8.48;;;17.50;50.10;;;;;;5012957;28;20449;-45
2022/04/18 09:27:06;;;;;;;11.95;8.50;;;17.70;49.80;;;;;;5006360;28;20566;-45
2022/04/18 09:29:38;;;;;;;10.43;7.95;;;17.70;49.40;;;;;;5014456;28;20056;-44
2022/04/18 09:32:08;;;;;;;11.70;8.00;;;17.80;50.10;;;;;;5005752;28;20049;-45
2022/04/18 09:34:34;;;;;;;12.25;7.90;;;18.00;50.40;;;;;;5012512;28;20273;-45
2022/04/18 09:37:14;;;;;;;18.85;8.70;;;18.20;50.30;;;;;;5012334;28;20320;-45
2022/04/18 09:39:43;;;;;;;12.18;7.88;;;18.40;49.30;;;;;;5013447;28;20097;-44
2022/04/18 09:42:11;;;;;;;10.88;7.60;;;18.40;49.20;;;;;;5012455;28;20088;-44
2022/04/18 09:44:39;;;;;;;12.48;7.90;;;18.40;48.40;;;;;;5013001;28;20064;-44
2022/04/18 09:47:06;;;;;;;13.48;8.07;;;18.60;48.20;;;;;;5013575;28;20104;-49
2022/04/18 09:49:39;;;;;;;12.15;7.65;;;18.70;48.00;;;;;;5013697;28;20409;-45
2022/04/18 09:52:07;;;;;;;16.67;7.15;;;18.80;46.20;;;;;;5012337;28;20054;-45
2022/04/18 09:54:34;;;;;;;11.35;7.68;;;18.70;47.70;;;;;;5013699;28;20495;-45
2022/04/18 09:57:04;;;;;;;10.27;6.78;;;18.90;47.00;;;;;;5013430;28;20085;-44
2022/04/18 09:59:31;;;;;;;11.77;7.80;;;18.90;46.10;;;;;;5008452;28;20066;-45
2022/04/18 10:01:59;;;;;;;12.23;7.32;;;18.90;46.20;;;;;;5010485;28;20125;-45
2022/04/18 10:04:25;;;;;;;11.93;7.10;;;19.10;46.10;;;;;;5006054;28;20053;-44
2022/04/18 10:06:52;;;;;;;11.48;6.85;;;19.20;45.70;;;;;;5004829;28;20062;-44
2022/04/18 10:09:19;;;;;;;12.77;7.18;;;19.40;46.80;;;;;;5012884;28;20064;-44
2022/04/18 10:11:46;;;;;;;13.98;5.78;;;19.50;45.80;;;;;;5011785;28;20049;-45
2022/04/18 10:14:13;;;;;;;10.35;5.20;;;19.50;44.60;;;;;;5011466;28;20502;-45
2022/04/18 10:16:40;;;;;;;8.15;5.13;;;19.70;44.10;;;;;;5013140;28;20052;-43
2022/04/18 10:19:19;;;;;;;11.00;6.25;;;19.70;42.90;;;;;;5004948;28;20049;-44
2022/04/18 10:21:46;;;;;;;11.70;5.90;;;19.90;42.70;;;;;;5011500;28;20112;-44
2022/04/18 10:24:40;;;;;;;12.07;5.93;;;19.90;43.60;;;;;;5005174;28;20107;-44
2022/04/18 10:27:35;;;;;;;7.35;4.82;;;20.10;43.80;;;;;;5011668;28;20410;-44
2022/04/18 10:30:01;;;;;;;8.93;6.20;;;20.30;41.90;;;;;;5010282;28;20060;-45
2022/04/18 10:32:28;;;;;;;10.23;6.38;;;20.40;43.20;;;;;;5010185;28;20054;-44
2022/04/18 10:34:59;;;;;;;10.45;6.68;;;20.50;42.40;;;;;;5006027;28;20509;-44
2022/04/18 10:37:26;;;;;;;8.85;5.40;;;20.50;42.40;;;;;;5012488;28;20504;-43
2022/04/18 10:39:57;;;;;;;8.85;4.95;;;20.70;42.70;;;;;;5011750;28;20060;-44
2022/04/18 10:42:28;;;;;;;7.40;5.20;;;20.80;42.40;;;;;;5011780;28;20053;-44
2022/04/18 10:44:58;;;;;;;8.47;5.30;;;21.00;41.90;;;;;;5006905;28;20132;-44
2022/04/18 10:47:25;;;;;;;9.80;6.28;;;21.10;42.60;;;;;;5012560;28;20644;-44
2022/04/18 10:50:19;;;;;;;9.18;5.13;;;21.10;42.10;;;;;;5012787;28;20129;-44
2022/04/18 10:53:14;;;;;;;7.75;5.68;;;21.20;43.30;;;;;;5005569;28;20054;-44
2022/04/18 10:55:41;;;;;;;9.68;5.40;;;21.20;39.10;;;;;;5012030;28;20050;-44
2022/04/18 10:58:14;;;;;;;7.22;5.15;;;21.10;40.70;;;;;;5012445;28;20053;-43
2022/04/18 11:00:48;;;;;;;7.68;5.13;;;21.30;40.70;;;;;;5012408;28;20112;-43
2022/04/18 11:03:15;;;;;;;6.90;4.38;;;21.40;39.90;;;;;;5012545;28;20051;-44
2022/04/18 11:05:43;;;;;;;8.95;5.68;;;21.40;39.40;;;;;;5012098;28;20049;-43
2022/04/18 11:08:23;;;;;;;7.25;4.90;;;21.50;39.30;;;;;;5011389;28;20045;-44
2022/04/18 11:10:50;;;;;;;6.45;4.40;;;21.70;41.60;;;;;;5012180;28;20046;-45
2022/04/18 11:13:17;;;;;;;8.77;4.70;;;21.70;40.30;;;;;;5011505;28;20045;-44
2022/04/18 11:15:43;;;;;;;5.93;3.75;;;21.80;39.40;;;;;;5012082;28;20499;-43
2022/04/18 11:18:10;;;;;;;4.28;3.17;;;21.90;39.70;;;;;;5012048;28;20042;-44
2022/04/18 11:20:37;;;;;;;6.05;3.28;;;22.00;38.80;;;;;;5012427;28;20478;-43
2022/04/18 11:23:22;;;;;;;8.80;3.75;;;22.10;37.80;;;;;;5008360;28;20099;-44
2022/04/18 11:25:56;;;;;;;4.80;3.58;;;22.20;38.30;;;;;;5009658;28;20088;-44
2022/04/18 11:28:26;;;;;;;7.53;4.28;;;22.30;39.40;;;;;;5011017;28;20042;-45
2022/04/18 11:30:53;;;;;;;8.35;4.90;;;22.60;38.30;;;;;;5011967;28;20053;-44
2022/04/18 11:33:19;;;;;;;6.40;4.70;;;22.70;37.20;;;;;;5007395;28;20050;-44
2022/04/18 11:35:46;;;;;;;7.45;5.30;;;22.70;36.60;;;;;;5008607;28;20053;-43
2022/04/18 11:38:13;;;;;;;6.85;4.50;;;22.70;36.50;;;;;;5010922;28;20540;-44
2022/04/18 11:40:41;;;;;;;6.22;4.10;;;22.60;36.50;;;;;;5012244;28;20077;-44
2022/04/18 11:43:12;;;;;;;6.55;4.35;;;22.70;35.90;;;;;;5003110;28;20073;-43
2022/04/18 11:45:39;;;;;;;5.53;4.18;;;22.60;34.50;;;;;;5011155;28;20050;-45
2022/04/18 11:48:06;;;;;;;9.70;4.63;;;22.60;35.60;;;;;;5012126;28;20413;-44
2022/04/18 11:50:36;;;;;;;5.40;3.92;;;22.70;34.80;;;;;;5011961;28;20068;-44
2022/04/18 11:53:04;;;;;;;5.78;4.35;;;22.60;34.40;;;;;;5001891;28;20054;-44
2022/04/18 11:55:31;;;;;;;7.72;4.68;;;22.60;35.00;;;;;;5006340;28;20129;-44
2022/04/18 11:57:59;;;;;;;5.07;3.75;;;22.70;35.10;;;;;;5010504;28;20058;-44
2022/04/18 12:08:39;;;;;;;6.38;4.68;;;23.10;34.50;;;;;;5008381;28;20133;-44
2022/04/18 12:11:06;;;;;;;8.55;5.40;;;23.10;34.50;;;;;;5005613;28;20429;-45
2022/04/18 12:13:34;;;;;;;8.07;5.60;;;23.20;34.90;;;;;;5014527;28;20104;-44
2022/04/18 12:16:01;;;;;;;8.23;5.00;;;23.20;34.20;;;;;;5005847;28;20154;-44
2022/04/18 12:18:28;;;;;;;8.32;4.57;;;23.30;35.50;;;;;;5012437;28;20058;-44
2022/04/18 12:20:54;;;;;;;5.57;3.80;;;23.30;35.80;;;;;;5003843;28;20058;-44
2022/04/18 12:23:22;;;;;;;7.78;4.70;;;23.40;36.80;;;;;;5007017;28;20137;-44
2022/04/18 12:25:49;;;;;;;9.02;4.82;;;23.40;34.60;;;;;;5012559;28;20054;-43
2022/04/18 12:28:16;;;;;;;7.28;4.90;;;23.30;34.30;;;;;;5009442;28;20060;-45
2022/04/18 12:30:45;;;;;;;7.00;4.60;;;23.30;33.80;;;;;;5004592;28;20042;-44
2022/04/18 12:33:16;;;;;;;10.73;4.75;;;23.30;34.30;;;;;;5003901;28;20501;-44
2022/04/18 12:35:45;;;;;;;8.70;4.57;;;23.30;34.10;;;;;;5008504;28;20053;-44
2022/04/18 12:38:12;;;;;;;8.95;5.32;;;23.40;34.50;;;;;;5014403;28;20058;-44
2022/04/18 12:40:40;;;;;;;9.80;4.90;;;23.50;34.30;;;;;;5010771;28;20064;-44
2022/04/18 12:43:08;;;;;;;8.55;5.47;;;23.60;35.00;;;;;;5017072;28;20559;-45
2022/04/18 12:45:47;;;;;;;8.63;5.15;;;23.80;35.00;;;;;;5014165;28;20056;-45
2022/04/18 12:48:14;;;;;;;8.00;5.18;;;24.00;34.80;;;;;;5002679;28;20039;-45
2022/04/18 12:50:40;;;;;;;7.47;4.82;;;24.10;33.90;;;;;;5014261;28;20160;-44
2022/04/18 12:53:07;;;;;;;8.15;5.25;;;24.20;36.00;;;;;;5012497;28;20060;-44
2022/04/18 12:55:34;;;;;;;11.60;5.45;;;24.20;34.60;;;;;;5009975;28;20038;-45
2022/04/18 12:58:01;;;;;;;6.85;5.10;;;24.10;34.20;;;;;;5007459;28;20046;-45
2022/04/18 13:00:34;;;;;;;7.28;4.80;;;24.00;34.30;;;;;;5004930;28;20137;-44
2022/04/18 13:03:03;;;;;;;7.65;5.13;;;24.00;35.30;;;;;;5001473;28;20061;-45
2022/04/18 13:05:31;;;;;;;7.78;4.82;;;24.10;33.90;;;;;;5006228;28;20057;-45
2022/04/18 13:08:00;;;;;;;7.68;4.60;;;24.10;34.60;;;;;;5007474;28;20056;-45
2022/04/18 13:10:28;;;;;;;6.28;4.53;;;24.10;33.80;;;;;;5004149;28;20046;-45
2022/04/18 13:13:02;;;;;;;6.28;5.20;;;24.30;34.80;;;;;;5007273;28;20498;-43